Atkinson, Illinois
Current Conditions -  °F | °C
As of 4:52 AM on Sunday 23 Nov 2014 (Local Time) from KMLI Reporting Station
Overcast Overcast  
Wind Chill: 52°   Ceiling: 3200
Heat Index: 52°   Visibility: 10mi
Dew Point: 48°   Wind: 12mph
Humidity: 86%   Direction: 180°S
Pressure: 29.67"   Gusts: NA
Location:  41.42°N, 90.02°W
Report Text: KMLI 231052Z AUTO 18010KT 10SM BKN032 OVC055 11/09 A2967 RMK AO2 SLP047 T01110089 $
Loading
Personal Weather Stations






























Interactive Weather Map New forecast layout! Learn more

10-Day Weather Forecast

Advertisements
Track Severe Weather on mobile